Time;durP1;ratioP1;P1;durP2;ratioP2;P2;SDS_P1;SDS_P2;PMS_P1;PMS_P2;Temp;Humidity;BMP_temperature;BMP_pressure;BME280_temperature;BME280_humidity;BME280_pressure;Samples;Min_cycle;Max_cycle;Signal;HPM_P1;HPM_P2
2022/11/11 00:01:03;;;;;;;10.48;2.17;;;;;;;16.79;100.00;99787.91;5028875;28;20091;-85
2022/11/11 00:03:31;;;;;;;10.55;2.38;;;;;;;16.88;100.00;99799.59;5027125;28;20060;-85
2022/11/11 00:06:07;;;;;;;11.30;2.53;;;;;;;16.93;100.00;99786.84;5029257;28;20495;-85
2022/11/11 00:08:34;;;;;;;13.27;2.20;;;;;;;16.91;100.00;99801.13;5027571;28;20118;-85
2022/11/11 00:11:07;;;;;;;11.95;2.78;;;;;;;17.02;100.00;99827.59;5029496;28;20049;-85
2022/11/11 00:13:34;;;;;;;13.80;2.47;;;;;;;16.81;100.00;99830.09;5028260;28;20119;-85
2022/11/11 00:16:08;;;;;;;9.35;2.20;;;;;;;16.86;100.00;99796.22;5029121;28;20045;-84
2022/11/11 00:26:49;;;;;;;13.75;2.97;;;;;;;16.67;100.00;99805.56;5023886;28;20179;-85
2022/11/11 00:29:15;;;;;;;7.97;1.83;;;;;;;16.88;100.00;99813.63;5027376;28;20124;-85
2022/11/11 00:34:27;;;;;;;12.95;2.33;;;;;;;16.68;100.00;99807.25;5027403;28;20049;-85
2022/11/11 00:36:54;;;;;;;12.15;2.17;;;;;;;16.78;100.00;99817.94;5028450;28;20068;-85
2022/11/11 00:39:21;;;;;;;10.15;2.05;;;;;;;16.87;100.00;99811.13;5030308;28;20049;-85
2022/11/11 00:41:48;;;;;;;12.32;2.45;;;;;;;16.71;100.00;99806.16;5029625;28;20060;-85
2022/11/11 00:44:14;;;;;;;13.93;2.33;;;;;;;16.84;100.00;99836.00;5030723;28;20045;-85
2022/11/11 00:52:12;;;;;;;10.45;2.75;;;;;;;16.66;100.00;99834.75;5028995;28;20211;-85
2022/11/11 00:54:38;;;;;;;8.82;2.30;;;;;;;16.70;100.00;99826.47;5029701;28;20472;-85
2022/11/11 00:57:05;;;;;;;15.18;2.67;;;;;;;16.75;100.00;99818.19;5027492;28;20056;-85
2022/11/11 00:59:33;;;;;;;10.13;2.20;;;;;;;16.94;100.00;99833.47;5028834;28;20076;-85
2022/11/11 01:02:00;;;;;;;13.50;2.22;;;;;;;16.65;100.00;99818.06;5033356;28;20050;-85
2022/11/11 01:04:27;;;;;;;10.07;1.88;;;;;;;16.73;100.00;99833.31;5018013;28;20053;-85
2022/11/11 01:06:54;;;;;;;12.43;2.33;;;;;;;16.74;100.00;99813.84;5028906;28;20072;-85
2022/11/11 01:09:20;;;;;;;11.38;2.40;;;;;;;16.86;100.00;99823.50;5030080;28;20459;-85
2022/11/11 01:11:47;;;;;;;9.07;2.00;;;;;;;16.80;100.00;99810.75;5029775;28;20574;-85
2022/11/11 01:14:14;;;;;;;12.52;2.30;;;;;;;16.57;100.00;99828.38;5029508;28;20132;-85
2022/11/11 01:16:40;;;;;;;10.73;1.90;;;;;;;16.55;100.00;99826.81;5027046;28;20459;-85
2022/11/11 01:19:07;;;;;;;12.27;2.13;;;;;;;16.64;100.00;99800.53;5031216;28;20051;-85
2022/11/11 01:21:34;;;;;;;12.02;2.42;;;;;;;16.67;100.00;99821.41;5029448;28;20045;-86
2022/11/11 01:24:01;;;;;;;9.80;2.30;;;;;;;16.66;100.00;99832.09;5029179;28;20423;-85
2022/11/11 01:26:28;;;;;;;12.73;2.70;;;;;;;16.55;100.00;99821.53;5032188;28;20095;-86
2022/11/11 01:28:58;;;;;;;11.85;2.35;;;;;;;16.59;100.00;99813.25;5029712;28;20048;-85
2022/11/11 01:31:26;;;;;;;12.13;2.55;;;;;;;16.59;100.00;99813.25;5029770;28;20049;-85
2022/11/11 01:33:53;;;;;;;10.05;1.90;;;;;;;16.51;100.00;99792.69;5028745;28;20084;-86
2022/11/11 01:36:25;;;;;;;9.32;2.10;;;;;;;16.70;100.00;99817.72;5015990;28;20049;-86
2022/11/11 01:38:55;;;;;;;8.15;1.52;;;;;;;16.47;100.00;99798.34;5030454;28;20106;-86
2022/11/11 01:41:35;;;;;;;10.20;2.17;;;;;;;16.47;100.00;99825.59;5025715;28;20487;-85
2022/11/11 01:44:18;;;;;;;9.95;2.38;;;;;;;16.64;100.00;99847.25;5024995;28;20111;-85
2022/11/11 01:46:51;;;;;;;;;;;;;;;16.56;100.00;99833.78;5029922;28;20049;-85
2022/11/11 01:49:30;;;;;;;11.05;1.83;;;;;;;16.54;100.00;99848.91;5029442;28;21591;-85
2022/11/11 01:52:08;;;;;;;9.70;1.83;;;;;;;16.61;100.00;99843.03;5028815;28;20064;-85
2022/11/11 01:54:40;;;;;;;10.57;2.03;;;;;;;16.64;100.00;99850.75;5014078;28;20081;-85
2022/11/11 01:57:20;;;;;;;7.25;1.60;;;;;;;16.46;100.00;99868.81;5024988;28;20049;-85
2022/11/11 01:59:51;;;;;;;10.93;1.63;;;;;;;16.45;100.00;99855.72;5025111;28;20057;-86
2022/11/11 02:02:25;;;;;;;10.60;2.15;;;;;;;16.16;100.00;99853.50;5019821;28;20045;-85
2022/11/11 02:07:40;;;;;;;9.27;2.00;;;;;;;16.33;100.00;99863.63;5015138;28;20049;-86
2022/11/11 02:10:08;;;;;;;9.70;2.03;;;;;;;16.12;100.00;99857.34;5029448;28;20132;-86
2022/11/11 02:15:21;;;;;;;10.07;2.15;;;;;;;16.10;100.00;99854.81;5016769;28;20053;-86
2022/11/11 02:17:49;;;;;;;10.18;2.40;;;;;;;16.30;100.00;99874.44;5029728;28;20042;-86
2022/11/11 02:20:22;;;;;;;9.32;2.47;;;;;;;16.31;100.00;99885.84;5015357;28;20104;-86
2022/11/11 02:23:00;;;;;;;12.68;2.75;;;;;;;15.98;100.00;99858.34;5028503;28;20407;-87
2022/11/11 02:25:31;;;;;;;16.15;3.03;;;;;;;16.11;100.00;99888.19;5011943;28;20544;-87
2022/11/11 02:28:02;;;;;;;13.15;2.80;;;;;;;16.00;100.00;99903.97;5030980;28;20048;-86
2022/11/11 02:30:29;;;;;;;12.73;2.58;;;;;;;16.03;100.00;99887.91;5034874;28;20420;-86
2022/11/11 02:32:55;;;;;;;13.23;3.42;;;;;;;15.82;100.00;99881.56;5033017;28;20411;-86
2022/11/11 02:35:33;;;;;;;11.82;2.78;;;;;;;16.01;100.00;99896.91;5028720;28;20049;-86
2022/11/11 02:38:09;;;;;;;14.30;2.47;;;;;;;16.00;100.00;99900.47;5017887;28;20045;-87
2022/11/11 02:43:31;;;;;;;13.90;2.55;;;;;;;15.86;100.00;99880.38;5022882;28;20137;-87
2022/11/11 02:45:59;;;;;;;11.32;2.70;;;;;;;15.66;100.00;99905.56;5030631;28;20532;-87
2022/11/11 02:48:27;;;;;;;12.43;2.60;;;;;;;15.65;100.00;99894.16;5032055;28;20045;-86
2022/11/11 02:50:54;;;;;;;13.00;2.53;;;;;;;15.64;100.00;99881.06;5020853;28;20045;-86
2022/11/11 02:53:21;;;;;;;21.20;4.75;;;;;;;15.52;100.00;99888.06;5018053;28;20054;-86
2022/11/11 02:55:49;;;;;;;18.17;3.92;;;;;;;15.49;100.00;99893.56;5030388;28;20488;-85
2022/11/11 02:58:17;;;;;;;21.45;4.45;;;;;;;15.43;100.00;99899.28;5017793;28;20046;-87
2022/11/11 03:00:44;;;;;;;25.58;4.78;;;;;;;15.22;100.00;99886.66;5032044;28;20738;-86
2022/11/11 03:03:11;;;;;;;20.98;4.93;;;;;;;15.08;100.00;99873.59;5032163;28;20049;-86
2022/11/11 03:05:38;;;;;;;17.15;3.85;;;;;;;15.20;100.00;99899.09;5025206;28;20049;-86
2022/11/11 03:08:05;;;;;;;22.25;4.05;;;;;;;15.22;100.00;99897.19;5018794;28;20056;-86
2022/11/11 03:10:31;;;;;;;15.32;3.70;;;;;;;15.18;100.00;99911.56;5029300;28;20443;-87
2022/11/11 03:12:58;;;;;;;22.02;4.30;;;;;;;15.22;100.00;99910.38;5029423;28;20511;-86
2022/11/11 03:15:26;;;;;;;15.10;3.80;;;;;;;15.23;100.00;99912.09;5031765;28;20072;-86
2022/11/11 03:17:52;;;;;;;16.58;3.63;;;;;;;15.34;100.00;99927.16;5030003;28;20057;-87
2022/11/11 03:23:13;;;;;;;15.40;3.55;;;;;;;15.44;100.00;99919.41;5020654;28;20046;-87
2022/11/11 03:25:46;;;;;;;13.15;2.88;;;;;;;15.50;100.00;99927.75;5025005;28;20057;-86
2022/11/11 03:28:15;;;;;;;13.98;3.15;;;;;;;15.56;100.00;99932.59;5031217;28;20468;-86
2022/11/11 03:30:44;;;;;;;12.90;2.60;;;;;;;15.78;100.00;99936.38;5032583;28;20462;-87
2022/11/11 03:33:11;;;;;;;17.50;3.75;;;;;;;15.60;100.00;99922.69;5023832;28;20053;-86
2022/11/11 03:35:38;;;;;;;13.57;3.03;;;;;;;15.79;100.00;99922.19;5030088;28;20072;-87
2022/11/11 03:38:22;;;;;;;17.25;2.50;;;;;;;15.71;100.00;99912.19;5032281;28;20084;-87
2022/11/11 03:40:52;;;;;;;8.88;2.20;;;;;;;15.69;100.00;99907.97;5031771;28;20049;-87
2022/11/11 03:43:20;;;;;;;12.00;2.67;;;;;;;15.73;100.00;99899.72;5031048;28;20053;-88
2022/11/11 03:45:48;;;;;;;9.38;2.38;;;;;;;15.76;100.00;99898.69;5030772;28;20155;-87
2022/11/11 03:48:15;;;;;;;10.20;2.55;;;;;;;15.64;100.00;99896.91;5031679;28;20053;-86
2022/11/11 03:50:42;;;;;;;14.05;2.92;;;;;;;15.65;100.00;99898.56;5027921;28;20050;-87
2022/11/11 03:53:09;;;;;;;18.45;4.03;;;;;;;15.42;100.00;99858.84;5029824;28;20099;-87
2022/11/11 03:55:36;;;;;;;18.52;3.88;;;;;;;15.60;100.00;99898.94;5032435;28;20053;-87
2022/11/11 03:58:02;;;;;;;16.30;3.58;;;;;;;15.42;100.00;99881.75;5018355;28;20111;-87
2022/11/11 04:00:29;;;;;;;14.40;3.35;;;;;;;15.48;100.00;99868.97;5032659;28;20568;-87
2022/11/11 04:11:24;;;;;;;24.52;4.65;;;;;;;15.29;100.00;99902.91;5032418;28;19925;-88
2022/11/11 04:16:37;;;;;;;27.00;4.00;;;;;;;14.95;100.00;99885.00;5031602;28;20049;-87
2022/11/11 04:21:49;;;;;;;18.48;3.80;;;;;;;15.06;100.00;99904.50;5014563;28;20054;-87
2022/11/11 04:27:09;;;;;;;19.20;3.70;;;;;;;14.79;100.00;99856.22;5031540;28;20107;-87
2022/11/11 04:29:36;;;;;;;18.77;3.67;;;;;;;15.00;100.00;99885.53;5031524;28;20053;-87
2022/11/11 04:35:05;;;;;;;18.75;3.92;;;;;;;15.00;100.00;99882.91;5030459;28;20046;-87
2022/11/11 04:37:34;;;;;;;21.10;4.15;;;;;;;14.83;100.00;99891.13;5030531;28;20111;-85
2022/11/11 04:42:46;;;;;;;34.42;6.82;;;;;;;14.76;100.00;99877.50;5018695;28;20107;-86
2022/11/11 04:45:29;;;;;;;19.88;3.80;;;;;;;14.86;100.00;99877.75;5018682;28;20061;-88
2022/11/11 04:48:08;;;;;;;24.15;4.22;;;;;;;15.02;100.00;99890.69;5029163;28;20046;-86
2022/11/11 04:50:37;;;;;;;25.25;4.35;;;;;;;14.99;100.00;99880.34;5017170;28;20042;-86
2022/11/11 04:53:09;;;;;;;25.25;4.28;;;;;;;14.96;100.00;99891.09;5030108;28;20053;-86
2022/11/11 04:58:24;;;;;;;16.63;3.55;;;;;;;15.14;100.00;99876.66;5012509;28;20466;-90
2022/11/11 05:00:51;;;;;;;14.38;3.45;;;;;;;15.07;100.00;99867.50;5014800;28;20493;-90
2022/11/11 05:03:20;;;;;;;11.07;2.38;;;;;;;15.12;100.00;99870.66;5030073;28;20095;-89
2022/11/11 05:08:55;;;;;;;9.82;2.00;;;;;;;15.49;100.00;99877.72;5028836;28;20095;-87
2022/11/11 05:11:33;;;;;;;7.35;1.60;;;;;;;15.63;100.00;99893.41;5031997;28;20488;-89
2022/11/11 05:22:30;;;;;;;11.20;1.90;;;;;;;15.61;100.00;99891.84;5032012;28;20381;-86
2022/11/11 05:27:42;;;;;;;4.90;1.20;;;;;;;15.91;100.00;99894.91;5027449;28;20061;-86
2022/11/11 05:30:12;;;;;;;6.63;1.50;;;;;;;16.02;100.00;99917.06;5028017;28;20056;-87
2022/11/11 05:32:39;;;;;;;10.15;1.70;;;;;;;15.63;100.00;99903.97;5029273;28;20571;-87
2022/11/11 05:35:07;;;;;;;6.78;1.63;;;;;;;15.79;100.00;99892.34;5027412;28;20053;-87
2022/11/11 05:37:34;;;;;;;5.85;1.45;;;;;;;15.63;100.00;99872.28;5025750;28;20073;-87
2022/11/11 05:40:01;;;;;;;8.57;1.63;;;;;;;15.82;100.00;99900.88;5028871;28;20037;-88
2022/11/11 05:42:28;;;;;;;7.93;1.58;;;;;;;15.69;100.00;99905.34;5029910;28;20103;-87
2022/11/11 05:44:54;;;;;;;9.98;2.05;;;;;;;15.50;100.00;99897.91;5027530;28;20053;-87
2022/11/11 05:47:21;;;;;;;7.32;1.73;;;;;;;15.55;100.00;99885.22;5029232;28;20104;-87
2022/11/11 05:49:48;;;;;;;9.63;1.95;;;;;;;15.68;100.00;99891.28;5030902;28;20046;-87
2022/11/11 05:52:15;;;;;;;9.60;1.98;;;;;;;15.50;100.00;99911.09;5029432;28;20080;-87
2022/11/11 05:54:43;;;;;;;13.48;2.80;;;;;;;15.46;100.00;99905.19;5022275;28;20060;-87
2022/11/11 05:57:11;;;;;;;12.27;2.40;;;;;;;15.63;100.00;99906.59;5025328;28;20434;-87
2022/11/11 05:59:37;;;;;;;9.57;2.00;;;;;;;15.63;100.00;99913.69;5026221;28;20076;-87
2022/11/11 06:02:04;;;;;;;15.32;2.80;;;;;;;15.30;100.00;99907.22;5039113;28;20050;-87
2022/11/11 06:04:33;;;;;;;13.32;2.40;;;;;;;15.40;100.00;99920.59;5033319;28;20463;-87
2022/11/11 06:07:00;;;;;;;10.25;2.53;;;;;;;15.35;100.00;99918.28;5033346;28;20057;-87
2022/11/11 06:09:26;;;;;;;11.93;2.20;;;;;;;15.63;100.00;99927.72;5033165;28;20050;-87
2022/11/11 06:11:53;;;;;;;13.18;2.13;;;;;;;15.78;100.00;99925.81;5029905;28;20057;-87
2022/11/11 06:14:22;;;;;;;9.48;2.17;;;;;;;15.66;100.00;99939.84;5032970;28;20511;-89
2022/11/11 06:16:49;;;;;;;14.70;2.85;;;;;;;15.50;100.00;99932.19;5028906;28;20061;-89
2022/11/11 06:19:16;;;;;;;8.55;2.42;;;;;;;15.45;100.00;99913.19;5030604;28;20041;-86
2022/11/11 06:21:59;;;;;;;14.15;2.70;;;;;;;15.43;100.00;99913.31;5033121;28;20480;-90
2022/11/11 06:24:26;;;;;;;14.18;3.15;;;;;;;15.59;100.00;99934.16;5019662;28;20104;-90
2022/11/11 06:26:54;;;;;;;13.05;2.83;;;;;;;15.42;100.00;99914.25;5029327;28;20045;-89
2022/11/11 06:29:21;;;;;;;9.00;1.73;;;;;;;15.53;100.00;99916.16;5032917;28;20050;-87
2022/11/11 06:31:48;;;;;;;12.98;2.83;;;;;;;15.44;100.00;99893.03;5030423;28;20463;-89
2022/11/11 06:34:18;;;;;;;15.45;3.60;;;;;;;15.36;100.00;99920.81;5030008;28;20050;-88
2022/11/11 06:36:45;;;;;;;20.20;3.95;;;;;;;15.42;100.00;99916.06;5031782;28;20130;-87
2022/11/11 06:39:12;;;;;;;16.55;2.78;;;;;;;15.46;100.00;99918.38;5030444;28;20045;-85
2022/11/11 06:41:42;;;;;;;16.42;2.85;;;;;;;15.49;100.00;99923.44;5032219;28;20045;-89
2022/11/11 06:44:08;;;;;;;15.05;3.03;;;;;;;15.58;100.00;99919.28;5029705;28;20041;-88
2022/11/11 06:46:35;;;;;;;20.05;3.72;;;;;;;15.45;100.00;99926.41;5031179;28;20091;-88
2022/11/11 06:49:02;;;;;;;14.38;3.00;;;;;;;15.56;100.00;99926.47;5030132;28;20042;-87
2022/11/11 06:51:29;;;;;;;13.43;2.80;;;;;;;15.54;100.00;99929.22;5031959;28;20080;-87
2022/11/11 06:53:55;;;;;;;13.00;2.65;;;;;;;15.65;100.00;99922.31;5025277;28;20060;-87
2022/11/11 06:56:22;;;;;;;10.60;2.25;;;;;;;15.64;100.00;99920.66;5028750;28;20514;-87
2022/11/11 06:58:49;;;;;;;11.02;2.55;;;;;;;15.70;100.00;99936.03;5029259;28;20119;-85
2022/11/11 07:01:16;;;;;;;20.20;3.92;;;;;;;15.56;100.00;99926.47;5025190;28;20042;-87
2022/11/11 07:03:42;;;;;;;19.77;3.28;;;;;;;15.69;100.00;99910.63;5031174;28;20053;-87
2022/11/11 07:06:09;;;;;;;13.43;2.63;;;;;;;15.37;100.00;99884.75;5028997;28;20049;-86
2022/11/11 07:08:36;;;;;;;16.95;2.88;;;;;;;15.46;100.00;99899.91;5032869;28;20136;-88
2022/11/11 07:11:03;;;;;;;20.80;3.85;;;;;;;15.37;100.00;99911.13;5032803;28;20049;-88
2022/11/11 07:13:39;;;;;;;15.82;3.15;;;;;;;15.27;100.00;99881.06;5032206;28;20064;-86
2022/11/11 07:16:07;;;;;;;18.02;3.47;;;;;;;15.54;100.00;99921.28;5033441;28;20049;-87
2022/11/11 07:18:36;;;;;;;15.38;3.33;;;;;;;15.51;100.00;99899.56;5032276;28;20056;-89
2022/11/11 07:21:03;;;;;;;18.38;3.10;;;;;;;15.46;100.00;99886.72;5033518;28;20518;-89
2022/11/11 07:23:30;;;;;;;13.07;2.90;;;;;;;15.40;100.00;99899.50;5032731;28;20564;-89
2022/11/11 07:25:57;;;;;;;26.65;4.57;;;;;;;15.32;100.00;99898.25;5032870;28;20058;-89
2022/11/11 07:28:24;;;;;;;15.07;4.00;;;;;;;15.47;100.00;99917.41;5033325;28;20046;-89
2022/11/11 07:30:51;;;;;;;21.08;3.90;;;;;;;15.12;100.00;99886.47;5033848;28;20142;-89
2022/11/11 07:33:18;;;;;;;16.75;3.78;;;;;;;14.95;100.00;99902.63;5033418;28;20156;-90
2022/11/11 07:35:50;;;;;;;14.13;3.30;;;;;;;15.29;100.00;99929.28;5031703;28;20381;-89
2022/11/11 07:38:17;;;;;;;14.82;3.58;;;;;;;15.12;100.00;99912.84;5031384;28;20056;-89
2022/11/11 07:40:43;;;;;;;20.08;3.65;;;;;;;15.52;100.00;99961.94;5023699;28;20499;-89
2022/11/11 07:43:10;;;;;;;19.50;5.10;;;;;;;15.43;100.00;99952.88;5032911;28;20052;-88
2022/11/11 07:45:37;;;;;;;22.00;4.32;;;;;;;15.14;100.00;99910.09;5030884;28;20099;-89
2022/11/11 07:48:04;;;;;;;20.88;4.25;;;;;;;15.48;100.00;99932.28;5028438;28;20507;-89
2022/11/11 07:50:31;;;;;;;22.13;4.82;;;;;;;14.99;100.00;99906.72;5030589;28;20111;-88
2022/11/11 07:52:57;;;;;;;18.52;3.90;;;;;;;15.17;100.00;99952.91;5032576;28;20483;-88
2022/11/11 07:55:24;;;;;;;21.10;4.88;;;;;;;14.99;100.00;99907.56;5033593;28;20053;-88
2022/11/11 07:57:52;;;;;;;19.45;4.25;;;;;;;15.32;100.00;99965.97;5027452;28;20459;-88
2022/11/11 08:00:19;;;;;;;20.67;3.92;;;;;;;15.19;100.00;99914.09;5032838;28;20377;-89
2022/11/11 08:02:47;;;;;;;23.60;3.83;;;;;;;15.12;100.00;99948.88;5033201;28;20573;-89
2022/11/11 08:05:14;;;;;;;14.38;3.97;;;;;;;15.16;100.00;99947.75;5032613;28;20050;-89
2022/11/11 08:07:41;;;;;;;23.60;4.90;;;;;;;15.24;100.00;99934.84;5031966;28;20087;-90
2022/11/11 08:10:10;;;;;;;26.17;4.53;;;;;;;15.23;100.00;99956.06;5023930;28;20041;-90
2022/11/11 08:15:22;;;;;;;19.92;3.80;;;;;;;15.17;100.00;99965.22;5032280;28;20049;-88
2022/11/11 08:17:49;;;;;;;23.45;4.60;;;;;;;14.69;100.00;99918.41;5029449;28;20065;-88
2022/11/11 08:20:16;;;;;;;17.92;4.45;;;;;;;14.78;100.00;99936.25;5034004;28;20507;-89
2022/11/11 08:22:43;;;;;;;21.92;4.70;;;;;;;14.95;100.00;99958.81;5033507;28;20049;-89
2022/11/11 08:25:30;;;;;;;17.70;4.40;;;;;;;14.99;100.00;99976.09;5023871;28;20144;-88
2022/11/11 08:28:02;;;;;;;17.02;3.22;;;;;;;15.08;100.00;99985.16;5034076;28;20056;-90
2022/11/11 08:30:30;;;;;;;17.97;3.30;;;;;;;14.80;100.00;99968.59;5044130;28;20526;-89
2022/11/11 08:33:02;;;;;;;19.55;3.50;;;;;;;15.02;100.00;99950.50;5027826;28;20049;-90
2022/11/11 08:35:49;;;;;;;20.67;4.35;;;;;;;15.10;100.00;99990.34;5031509;28;20492;-88
2022/11/11 08:38:22;;;;;;;21.08;4.30;;;;;;;15.16;100.00;99997.84;5026763;28;20056;-90
2022/11/11 08:40:51;;;;;;;18.75;4.00;;;;;;;15.14;100.00;99991.84;5021947;28;20068;-90
2022/11/11 08:43:19;;;;;;;17.88;4.32;;;;;;;15.33;100.00;100021.28;5027575;28;20725;-89
2022/11/11 08:45:46;;;;;;;24.85;5.25;;;;;;;15.23;100.00;100007.03;5032403;28;20061;-88
2022/11/11 08:48:13;;;;;;;18.30;3.53;;;;;;;15.11;100.00;99992.03;5031996;28;20136;-89
2022/11/11 08:50:40;;;;;;;14.80;3.30;;;;;;;15.18;100.00;100002.06;5029705;28;20054;-89
2022/11/11 08:53:07;;;;;;;18.30;3.63;;;;;;;15.35;100.00;100023.78;5016635;28;20046;-89
2022/11/11 08:55:35;;;;;;;17.27;3.67;;;;;;;15.23;100.00;100000.88;5026570;28;20057;-88
2022/11/11 08:58:05;;;;;;;17.02;4.05;;;;;;;15.33;100.00;100008.09;5032197;28;20076;-88
2022/11/11 09:00:33;;;;;;;20.05;4.20;;;;;;;15.65;100.00;100038.44;5030977;28;20485;-89
2022/11/11 09:03:01;;;;;;;27.63;5.07;;;;;;;15.18;100.00;100014.41;5024225;28;20484;-89
2022/11/11 09:05:28;;;;;;;18.38;4.35;;;;;;;15.56;100.00;100055.75;5033785;28;20064;-89
2022/11/11 09:07:54;;;;;;;17.92;4.15;;;;;;;15.12;100.00;99997.22;5032022;28;20053;-88
2022/11/11 09:10:21;;;;;;;18.45;3.97;;;;;;;15.32;100.00;100031.91;5032362;28;20046;-89
2022/11/11 09:12:48;;;;;;;17.45;3.67;;;;;;;15.35;100.00;100052.78;5032447;28;20057;-88
2022/11/11 09:15:15;;;;;;;20.40;4.20;;;;;;;15.17;100.00;99995.09;5031741;28;20053;-89
2022/11/11 09:17:46;;;;;;;20.90;3.83;;;;;;;15.26;100.00;100011.22;5032689;28;20060;-89
2022/11/11 09:20:13;;;;;;;21.33;4.40;;;;;;;15.27;100.00;100011.13;5018415;28;20388;-89
2022/11/11 09:22:44;;;;;;;17.35;3.60;;;;;;;15.53;100.00;100033.06;5032171;28;20045;-88
2022/11/11 09:25:11;;;;;;;17.30;4.07;;;;;;;15.64;100.00;100060.50;5031278;28;20386;-87
2022/11/11 09:27:38;;;;;;;14.32;2.60;;;;;;;15.93;100.00;100075.16;5031640;28;20053;-89
2022/11/11 09:30:06;;;;;;;17.30;3.55;;;;;;;15.88;100.00;100076.44;5032501;28;20041;-89
2022/11/11 09:32:33;;;;;;;21.27;3.78;;;;;;;15.60;100.00;100030.84;5029605;28;20075;-89
2022/11/11 09:35:00;;;;;;;14.32;3.22;;;;;;;15.46;100.00;100025.69;5032639;28;20381;-89
2022/11/11 09:37:27;;;;;;;13.80;3.10;;;;;;;15.63;100.00;100025.34;5030821;28;20049;-88
2022/11/11 09:39:57;;;;;;;14.88;3.25;;;;;;;15.51;100.00;100013.88;5031672;28;20054;-88
2022/11/11 09:42:29;;;;;;;16.77;3.42;;;;;;;16.09;100.00;100061.72;5030943;28;20045;-89
2022/11/11 09:45:10;;;;;;;18.52;3.00;;;;;;;15.75;100.00;100058.81;5032880;28;20068;-90
2022/11/11 09:47:46;;;;;;;10.90;2.72;;;;;;;16.37;100.00;100075.59;5031394;28;20468;-89
2022/11/11 09:50:27;;;;;;;16.73;3.35;;;;;;;16.39;100.00;100089.53;5021455;28;20049;-88
2022/11/11 09:53:05;;;;;;;13.88;2.70;;;;;;;16.50;100.00;100072.88;5028029;28;20400;-88
2022/11/11 09:55:38;;;;;;;19.15;4.28;;;;;;;16.32;100.00;100065.38;5026468;28;20062;-89
2022/11/11 09:58:21;;;;;;;12.05;3.40;;;;;;;16.30;100.00;100061.97;5028655;28;20495;-88
2022/11/11 10:01:01;;;;;;;18.15;3.67;;;;;;;16.31;100.00;100074.25;5026638;28;20061;-88
2022/11/11 10:03:30;;;;;;;16.80;2.65;;;;;;;16.35;100.00;100047.59;5027632;28;20050;-88
2022/11/11 10:06:02;;;;;;;14.95;3.20;;;;;;;16.45;100.00;100081.16;5026932;28;20049;-86
2022/11/11 10:08:36;;;;;;;18.38;3.38;;;;;;;16.75;100.00;100055.22;5030024;28;20053;-89
2022/11/11 10:11:10;;;;;;;14.25;3.20;;;;;;;16.75;100.00;100076.38;5027715;28;20107;-86
2022/11/11 10:13:37;;;;;;;20.33;3.75;;;;;;;16.60;100.00;100041.38;5032456;28;20049;-88
2022/11/11 10:16:43;;;;;;;15.50;2.95;;;;;;;17.01;100.00;100075.31;5030971;28;20472;-87
2022/11/11 10:19:09;;;;;;;11.77;2.60;;;;;;;17.04;100.00;100068.97;5017370;28;20037;-89
2022/11/11 10:21:48;;;;;;;18.35;3.10;;;;;;;16.80;100.00;100045.16;5023720;28;20080;-88
2022/11/11 10:24:39;;;;;;;17.23;2.97;;;;;;;17.00;100.00;100060.41;5025095;28;20108;-88
2022/11/11 10:27:18;;;;;;;20.80;3.75;;;;;;;16.65;100.00;100037.41;5026970;28;20448;-87
2022/11/11 10:29:45;;;;;;;17.38;3.47;;;;;;;16.50;100.00;100043.81;5032301;28;20486;-88
2022/11/11 10:32:24;;;;;;;21.17;4.07;;;;;;;16.51;100.00;100001.44;5030826;28;20071;-90
2022/11/11 10:34:51;;;;;;;12.38;3.20;;;;;;;16.61;100.00;100017.47;5031286;28;20049;-90
2022/11/11 10:37:22;;;;;;;15.13;3.05;;;;;;;17.01;100.00;100042.75;5030335;28;20049;-89
2022/11/11 10:40:14;;;;;;;17.98;3.63;;;;;;;17.01;100.00;100048.03;5019049;28;20356;-87
2022/11/11 10:42:41;;;;;;;17.08;3.70;;;;;;;16.72;100.00;100021.13;5029664;28;20049;-87
2022/11/11 10:45:28;;;;;;;13.48;3.53;;;;;;;16.84;100.00;99960.25;5019496;28;20050;-87
2022/11/11 10:48:29;;;;;;;15.68;3.35;;;;;;;17.05;100.00;100013.31;5029744;28;20132;-87
2022/11/11 10:51:01;;;;;;;15.82;3.17;;;;;;;16.98;100.00;100011.22;5032169;28;20447;-89
2022/11/11 10:53:59;;;;;;;13.95;3.13;;;;;;;17.10;100.00;99990.94;5030757;28;20389;-89
2022/11/11 10:56:48;;;;;;;13.55;2.70;;;;;;;17.31;100.00;100018.38;5026151;28;20061;-87
2022/11/11 10:59:31;;;;;;;15.57;3.63;;;;;;;17.20;100.00;100000.69;5029798;28;20056;-88
2022/11/11 11:02:05;;;;;;;13.45;3.15;;;;;;;17.21;100.00;100020.06;5033933;28;20372;-89
2022/11/11 11:04:51;;;;;;;18.10;2.90;;;;;;;17.27;100.00;100017.78;5031295;28;20437;-88
2022/11/11 11:07:28;;;;;;;16.17;3.60;;;;;;;17.29;100.00;99988.56;5013445;28;20404;-88
2022/11/11 11:10:04;;;;;;;19.38;3.22;;;;;;;17.14;100.00;99985.31;5027136;28;20050;-89
2022/11/11 11:12:38;;;;;;;15.10;3.38;;;;;;;17.52;100.00;100012.41;5014734;28;20483;-88
2022/11/11 11:15:12;;;;;;;15.38;3.80;;;;;;;17.30;100.00;100022.00;5023025;28;20050;-88
2022/11/11 11:18:08;;;;;;;14.98;3.22;;;;;;;17.65;100.00;100023.69;5032336;28;20053;-88
2022/11/11 11:20:35;;;;;;;12.98;3.45;;;;;;;17.40;100.00;99995.66;5023831;28;20484;-89
2022/11/11 11:23:02;;;;;;;16.75;3.15;;;;;;;17.48;100.00;100035.63;5015045;28;20054;-88
2022/11/11 11:25:34;;;;;;;18.30;3.72;;;;;;;17.16;100.00;100031.00;5032970;28;20053;-87
2022/11/11 11:28:12;;;;;;;13.38;3.20;;;;;;;17.27;100.00;100009.00;5018596;28;20060;-87
2022/11/11 11:30:39;;;;;;;15.27;3.20;;;;;;;17.58;100.00;100036.59;5030703;28;20049;-88
2022/11/11 11:33:08;;;;;;;17.35;3.80;;;;;;;17.35;100.00;100037.50;5032699;28;20392;-87
2022/11/11 11:35:43;;;;;;;19.02;5.18;;;;;;;16.92;100.00;99994.03;5035395;28;20046;-87
2022/11/11 11:38:11;;;;;;;15.25;4.25;;;;;;;17.00;100.00;99981.09;5034180;28;20057;-87
2022/11/11 11:40:52;;;;;;;15.43;4.30;;;;;;;17.29;100.00;100033.53;5021142;28;20053;-89
2022/11/11 11:43:37;;;;;;;15.80;3.47;;;;;;;17.12;100.00;100040.13;5033415;28;20054;-89
2022/11/11 11:46:33;;;;;;;17.80;3.65;;;;;;;17.07;100.00;99999.97;5019415;28;20049;-89
2022/11/11 11:49:19;;;;;;;20.83;3.95;;;;;;;17.52;100.00;100052.94;5021076;28;20069;-88
2022/11/11 11:52:04;;;;;;;15.52;3.40;;;;;;;17.22;100.00;100041.09;5026971;28;20046;-89
2022/11/11 11:54:50;;;;;;;21.50;5.07;;;;;;;17.41;100.00;100043.19;5017986;28;20064;-87
2022/11/11 11:57:40;;;;;;;18.10;3.88;;;;;;;17.08;100.00;100054.53;5032518;28;20053;-86
2022/11/11 12:00:26;;;;;;;15.68;3.22;;;;;;;17.08;100.00;100047.44;4995788;28;20054;-88
2022/11/11 12:03:05;;;;;;;13.65;3.97;;;;;;;17.35;100.00;100059.56;5033434;28;20053;-89
2022/11/11 12:05:41;;;;;;;17.98;3.30;;;;;;;17.51;100.00;100059.22;5040210;28;20045;-88
2022/11/11 12:08:21;;;;;;;18.50;4.10;;;;;;;17.22;100.00;100033.16;5046243;28;20049;-88
2022/11/11 12:11:00;;;;;;;19.88;3.58;;;;;;;17.26;100.00;100028.47;5024025;28;20045;-88
2022/11/11 12:13:43;;;;;;;18.25;4.57;;;;;;;16.93;100.00;99990.44;5034217;28;20053;-89
2022/11/11 12:16:24;;;;;;;13.85;2.95;;;;;;;17.51;100.00;100042.47;5034005;28;20056;-88
2022/11/11 12:19:32;;;;;;;16.75;3.38;;;;;;;17.61;100.00;100061.97;5030779;28;20049;-90
2022/11/11 12:22:26;;;;;;;21.08;4.15;;;;;;;17.40;100.00;100035.34;5019743;28;20605;-88
2022/11/11 12:25:19;;;;;;;20.30;4.03;;;;;;;17.52;100.00;100042.34;5034660;28;20487;-86
2022/11/11 12:27:59;;;;;;;18.92;3.70;;;;;;;17.53;100.00;100044.03;5030488;28;20052;-87
2022/11/11 12:30:29;;;;;;;20.35;4.35;;;;;;;17.01;100.00;100029.53;5031551;28;20053;-90
2022/11/11 12:33:17;;;;;;;16.58;3.47;;;;;;;17.32;100.00;100077.47;5030507;28;20427;-89
2022/11/11 12:36:09;;;;;;;18.85;4.45;;;;;;;17.32;100.00;100086.22;5030902;28;20484;-88
2022/11/11 12:38:53;;;;;;;13.18;3.42;;;;;;;17.10;100.00;100051.78;5032502;28;20148;-88
2022/11/11 12:41:25;;;;;;;19.90;3.75;;;;;;;17.02;100.00;100078.81;5033058;28;20400;-89
2022/11/11 12:44:09;;;;;;;16.53;3.20;;;;;;;17.37;100.00;100093.81;5026657;28;20471;-86
2022/11/11 12:46:51;;;;;;;17.52;4.30;;;;;;;17.37;100.00;100101.75;5038529;28;20487;-88